Kezdőlap
METAR-TAF:

METAR-TAF

Repülőterek :

Sandakan, Malajzia

földrajzi szélesség: 05-54N, földrajzi hosszúság: 118-04E, magasság: 12 m

Jelenlegi meteorológiai megfigyelések

A jelentés 29 perccel ezelõtt készült, 16:00 UTC
Kelet-északkeleti szél 5 kt, északi és kelet-délkeleti között változik
Hőmérséklet 28°C
Páratartalom 84%
Légköri nyomás 1012 hPa
Látótávolság 10 km, vagy több
Szórványos felhőzet 1400 lábon

METAR: WBKS 241600Z 06005KT 010V110 9999 SCT014 28/25 Q1012

Idő: 00:29 (16:29 UTC)

Előrejelzés

A jelentés 5 órával és 29 perccel ezelõtt készült, 11:00 UTC
Az előrejelzés 24-én 12 óra UTC és 25-én 12 óra UTC között érvényes
Északkeleti szél 6 kt
Látótávolság 10 km, vagy több
Kevés felhő 1500 lábon

TAF: WBKS 241100Z 2412/2512 05006KT 9999 FEW015

Meteorológiai megfigyelések és előrejelzések több, mint 4000 repülőtéren (METAR és TAF jelentéseket).

A térképen piros és sárga pontok jelzik az elérhető meteorológiai állomásokat.

Mozgassa az egeret a pont fölött, hogy megjelenjen az állomás neve.

Azután kattintson az időjárási megfigyelések és előrejelzések megtekintéséhez.

A térkép megváltoztatása: kattintson a fekete keresztel jelölt zöld gombra ráközelítéshez, a vonallal jelölt zöld gombra távolításhoz, vagy a zöld nyilakra a szomszédos térképek eléréséhez.


METAR-TAF: